Alegria X — CFK5248 — position and weather

sailwx.info

Track history (hours):
 
Tides and Currents Weather Stations Pressure Air Temp Water Temp Dewpoint Dewpoint Depression Visibility Wind Speed Wind Dir Waves Ship Positions

Alegria X

Last reported at 2018-Jun-16 19:50 UTC. Time now 2018-Jun-18 15:43 UTC.
Position N 49°15' W 126°25'.

Length 14 m.

Type: Sailing vessel. MMSI: 316025398.

Date/timePositionNaut miles runAvg speedWind from/ knotsBaromVisibWave heightAir tempDewpointWater temp
2018-Jun-16 19:50N 49°15' W 126°25'2 6.7
2018-Jun-16 19:30N 49°16' W 126°29'3 5.7
2018-Jun-16 18:59N 49°17' W 126°33'3 7.1
2018-Jun-16 18:30N 49°20' W 126°35'3 5.9
2018-Jun-16 18:00N 49°23' W 126°37'3 5.7
2018-Jun-16 17:30N 49°25' W 126°39'  
2018-Jun-13 20:26N 50°49' W 127°37'3 6.0
2018-Jun-13 19:58N 50°48' W 127°33'102 2.0
2018-Jun-11 17:38N 50°16' W 125°01'  
2018-Jun-08 22:21N 49°08' W 123°04'3 8.1
2018-Jun-08 21:58N 49°09' W 123°00'1 1.5
2018-Jun-08 21:29N 49°10' W 122°59'0 0.0
2018-Jun-08 20:53N 49°10' W 122°59'  
Track history (hours):
 
Tides and Currents Weather Stations Pressure Air Temp Water Temp Dewpoint Dewpoint Depression Visibility Wind Speed Wind Dir Waves Ship Positions

Alegria X

Last reported at 2018-Jun-16 19:50 UTC. Time now 2018-Jun-18 15:43 UTC.
Position N 49°15' W 126°25'.

Length 14 m.

Type: Sailing vessel. MMSI: 316025398.

Date/timePositionNaut miles runAvg speedWind from/ knotsBaromVisibWave heightAir tempDewpointWater temp
2018-Jun-16 19:50N 49°15' W 126°25'2 6.7
2018-Jun-16 19:30N 49°16' W 126°29'3 5.7
2018-Jun-16 18:59N 49°17' W 126°33'3 7.1
2018-Jun-16 18:30N 49°20' W 126°35'3 5.9
2018-Jun-16 18:00N 49°23' W 126°37'3 5.7
2018-Jun-16 17:30N 49°25' W 126°39'  
2018-Jun-13 20:26N 50°49' W 127°37'3 6.0
2018-Jun-13 19:58N 50°48' W 127°33'102 2.0
2018-Jun-11 17:38N 50°16' W 125°01'  
2018-Jun-08 22:21N 49°08' W 123°04'3 8.1
2018-Jun-08 21:58N 49°09' W 123°00'1 1.5
2018-Jun-08 21:29N 49°10' W 122°59'0 0.0
2018-Jun-08 20:53N 49°10' W 122°59'  

Dump ship's entire track history